sensor_id;sensor_type;location;lat;lon;timestamp;P1;durP1;ratioP1;P2;durP2;ratioP2
13122;SDS011;6627;50.920;12.050;2024-01-07T00:00:36;62.27;;;26.77;;
13122;SDS011;6627;50.920;12.050;2024-01-07T00:03:05;61.93;;;26.57;;
13122;SDS011;6627;50.920;12.050;2024-01-07T00:05:35;61.57;;;27.43;;
13122;SDS011;6627;50.920;12.050;2024-01-07T00:08:10;70.03;;;30.00;;
13122;SDS011;6627;50.920;12.050;2024-01-07T00:10:42;60.47;;;29.33;;
13122;SDS011;6627;50.920;12.050;2024-01-07T00:13:24;70.70;;;30.67;;
13122;SDS011;6627;50.920;12.050;2024-01-07T00:16:11;70.23;;;30.87;;
13122;SDS011;6627;50.920;12.050;2024-01-07T00:18:53;78.50;;;30.60;;
13122;SDS011;6627;50.920;12.050;2024-01-07T00:21:27;73.73;;;32.53;;
13122;SDS011;6627;50.920;12.050;2024-01-07T00:24:01;70.43;;;31.97;;
13122;SDS011;6627;50.920;12.050;2024-01-07T00:26:35;75.50;;;33.00;;
13122;SDS011;6627;50.920;12.050;2024-01-07T00:29:10;71.80;;;32.03;;
13122;SDS011;6627;50.920;12.050;2024-01-07T00:31:54;69.20;;;29.00;;
13122;SDS011;6627;50.920;12.050;2024-01-07T00:34:35;74.83;;;32.20;;
13122;SDS011;6627;50.920;12.050;2024-01-07T00:37:07;74.80;;;31.93;;
13122;SDS011;6627;50.920;12.050;2024-01-07T00:39:51;70.87;;;32.37;;
13122;SDS011;6627;50.920;12.050;2024-01-07T00:42:39;81.87;;;31.97;;
13122;SDS011;6627;50.920;12.050;2024-01-07T00:45:26;77.67;;;31.40;;
13122;SDS011;6627;50.920;12.050;2024-01-07T00:47:55;75.20;;;31.37;;
13122;SDS011;6627;50.920;12.050;2024-01-07T00:50:26;72.70;;;31.67;;
13122;SDS011;6627;50.920;12.050;2024-01-07T00:53:09;74.27;;;31.80;;
13122;SDS011;6627;50.920;12.050;2024-01-07T00:55:54;79.20;;;32.63;;
13122;SDS011;6627;50.920;12.050;2024-01-07T00:58:42;74.17;;;32.70;;
13122;SDS011;6627;50.920;12.050;2024-01-07T01:01:29;83.27;;;34.27;;
13122;SDS011;6627;50.920;12.050;2024-01-07T01:04:00;83.03;;;34.57;;
13122;SDS011;6627;50.920;12.050;2024-01-07T01:06:33;81.30;;;34.47;;
13122;SDS011;6627;50.920;12.050;2024-01-07T01:09:07;85.90;;;34.77;;
13122;SDS011;6627;50.920;12.050;2024-01-07T01:11:37;66.27;;;30.97;;
13122;SDS011;6627;50.920;12.050;2024-01-07T01:14:12;80.37;;;33.67;;
13122;SDS011;6627;50.920;12.050;2024-01-07T01:16:45;78.67;;;32.90;;
13122;SDS011;6627;50.920;12.050;2024-01-07T01:19:19;76.83;;;32.30;;
13122;SDS011;6627;50.920;12.050;2024-01-07T01:21:51;75.23;;;31.83;;
13122;SDS011;6627;50.920;12.050;2024-01-07T01:24:25;78.60;;;32.13;;
13122;SDS011;6627;50.920;12.050;2024-01-07T01:26:56;70.93;;;31.57;;
13122;SDS011;6627;50.920;12.050;2024-01-07T01:29:31;80.57;;;32.67;;
13122;SDS011;6627;50.920;12.050;2024-01-07T01:32:16;73.80;;;31.60;;
13122;SDS011;6627;50.920;12.050;2024-01-07T01:34:50;75.57;;;31.83;;
13122;SDS011;6627;50.920;12.050;2024-01-07T01:37:36;68.20;;;31.93;;
13122;SDS011;6627;50.920;12.050;2024-01-07T01:40:19;70.50;;;30.13;;
13122;SDS011;6627;50.920;12.050;2024-01-07T01:42:55;67.03;;;29.77;;
13122;SDS011;6627;50.920;12.050;2024-01-07T01:45:42;52.37;;;27.20;;
13122;SDS011;6627;50.920;12.050;2024-01-07T01:48:28;59.23;;;28.17;;
13122;SDS011;6627;50.920;12.050;2024-01-07T01:51:16;61.67;;;30.60;;
13122;SDS011;6627;50.920;12.050;2024-01-07T01:54:03;61.23;;;29.83;;
13122;SDS011;6627;50.920;12.050;2024-01-07T01:56:41;55.53;;;29.63;;
13122;SDS011;6627;50.920;12.050;2024-01-07T01:59:17;66.47;;;30.47;;
13122;SDS011;6627;50.920;12.050;2024-01-07T02:02:06;56.47;;;28.97;;
13122;SDS011;6627;50.920;12.050;2024-01-07T02:04:52;62.13;;;30.23;;
13122;SDS011;6627;50.920;12.050;2024-01-07T02:07:30;56.47;;;28.10;;
13122;SDS011;6627;50.920;12.050;2024-01-07T02:10:17;53.90;;;30.30;;
13122;SDS011;6627;50.920;12.050;2024-01-07T02:12:53;62.37;;;30.40;;
13122;SDS011;6627;50.920;12.050;2024-01-07T02:15:40;59.23;;;28.20;;
13122;SDS011;6627;50.920;12.050;2024-01-07T02:18:10;60.23;;;29.90;;
13122;SDS011;6627;50.920;12.050;2024-01-07T02:20:45;61.63;;;31.17;;
13122;SDS011;6627;50.920;12.050;2024-01-07T02:23:18;58.37;;;30.47;;
13122;SDS011;6627;50.920;12.050;2024-01-07T02:26:01;56.07;;;28.73;;
13122;SDS011;6627;50.920;12.050;2024-01-07T02:28:39;54.13;;;27.33;;
13122;SDS011;6627;50.920;12.050;2024-01-07T02:31:12;55.23;;;27.70;;
13122;SDS011;6627;50.920;12.050;2024-01-07T02:33:51;56.17;;;27.27;;
13122;SDS011;6627;50.920;12.050;2024-01-07T02:36:24;48.13;;;26.10;;
13122;SDS011;6627;50.920;12.050;2024-01-07T02:38:57;54.93;;;27.07;;
13122;SDS011;6627;50.920;12.050;2024-01-07T02:41:31;46.67;;;26.43;;
13122;SDS011;6627;50.920;12.050;2024-01-07T02:44:18;52.73;;;27.43;;
13122;SDS011;6627;50.920;12.050;2024-01-07T02:47:00;49.77;;;26.30;;
13122;SDS011;6627;50.920;12.050;2024-01-07T02:49:47;46.43;;;24.70;;
13122;SDS011;6627;50.920;12.050;2024-01-07T02:52:33;42.80;;;24.17;;
13122;SDS011;6627;50.920;12.050;2024-01-07T02:55:20;42.00;;;22.50;;
13122;SDS011;6627;50.920;12.050;2024-01-07T02:58:08;35.63;;;19.83;;
13122;SDS011;6627;50.920;12.050;2024-01-07T03:00:38;34.80;;;19.80;;
13122;SDS011;6627;50.920;12.050;2024-01-07T03:03:25;41.70;;;20.73;;
13122;SDS011;6627;50.920;12.050;2024-01-07T03:06:12;34.10;;;19.73;;
13122;SDS011;6627;50.920;12.050;2024-01-07T03:08:46;33.83;;;19.60;;
13122;SDS011;6627;50.920;12.050;2024-01-07T03:11:34;40.40;;;20.53;;
13122;SDS011;6627;50.920;12.050;2024-01-07T03:14:14;39.03;;;20.03;;
13122;SDS011;6627;50.920;12.050;2024-01-07T03:16:44;43.03;;;23.03;;
13122;SDS011;6627;50.920;12.050;2024-01-07T03:19:18;29.23;;;17.70;;
13122;SDS011;6627;50.920;12.050;2024-01-07T03:21:55;33.57;;;18.97;;
13122;SDS011;6627;50.920;12.050;2024-01-07T03:24:27;32.10;;;18.53;;
13122;SDS011;6627;50.920;12.050;2024-01-07T03:27:01;30.67;;;18.93;;
13122;SDS011;6627;50.920;12.050;2024-01-07T03:29:46;35.13;;;19.50;;
13122;SDS011;6627;50.920;12.050;2024-01-07T03:32:21;38.63;;;19.87;;
13122;SDS011;6627;50.920;12.050;2024-01-07T03:34:55;30.73;;;19.80;;
13122;SDS011;6627;50.920;12.050;2024-01-07T03:37:32;31.97;;;18.13;;
13122;SDS011;6627;50.920;12.050;2024-01-07T03:40:09;27.00;;;17.37;;
13122;SDS011;6627;50.920;12.050;2024-01-07T03:42:40;35.33;;;18.47;;
13122;SDS011;6627;50.920;12.050;2024-01-07T03:45:14;30.37;;;18.77;;
13122;SDS011;6627;50.920;12.050;2024-01-07T03:47:56;32.47;;;19.43;;
13122;SDS011;6627;50.920;12.050;2024-01-07T03:50:30;27.10;;;18.27;;
13122;SDS011;6627;50.920;12.050;2024-01-07T03:53:05;33.63;;;18.67;;
13122;SDS011;6627;50.920;12.050;2024-01-07T03:55:51;31.20;;;18.43;;
13122;SDS011;6627;50.920;12.050;2024-01-07T03:58:27;29.53;;;17.63;;
13122;SDS011;6627;50.920;12.050;2024-01-07T04:01:08;29.07;;;18.43;;
13122;SDS011;6627;50.920;12.050;2024-01-07T04:03:54;29.80;;;17.97;;
13122;SDS011;6627;50.920;12.050;2024-01-07T04:06:39;29.80;;;17.73;;
13122;SDS011;6627;50.920;12.050;2024-01-07T04:09:26;22.83;;;14.10;;
13122;SDS011;6627;50.920;12.050;2024-01-07T04:12:13;25.37;;;17.33;;
13122;SDS011;6627;50.920;12.050;2024-01-07T04:14:42;29.87;;;17.67;;
13122;SDS011;6627;50.920;12.050;2024-01-07T04:17:17;28.20;;;16.77;;
13122;SDS011;6627;50.920;12.050;2024-01-07T04:19:51;26.33;;;17.10;;
13122;SDS011;6627;50.920;12.050;2024-01-07T04:22:28;31.13;;;17.93;;
13122;SDS011;6627;50.920;12.050;2024-01-07T04:25:03;28.70;;;17.83;;
13122;SDS011;6627;50.920;12.050;2024-01-07T04:27:35;28.30;;;17.70;;
13122;SDS011;6627;50.920;12.050;2024-01-07T04:30:11;29.43;;;18.00;;
13122;SDS011;6627;50.920;12.050;2024-01-07T04:32:49;28.70;;;17.30;;
13122;SDS011;6627;50.920;12.050;2024-01-07T04:35:24;28.87;;;16.80;;
13122;SDS011;6627;50.920;12.050;2024-01-07T04:37:59;26.27;;;15.90;;
13122;SDS011;6627;50.920;12.050;2024-01-07T04:40:36;23.10;;;15.07;;
13122;SDS011;6627;50.920;12.050;2024-01-07T04:43:10;24.03;;;16.10;;
13122;SDS011;6627;50.920;12.050;2024-01-07T04:45:40;21.33;;;13.97;;
13122;SDS011;6627;50.920;12.050;2024-01-07T04:48:14;25.77;;;14.77;;
13122;SDS011;6627;50.920;12.050;2024-01-07T04:50:50;22.57;;;13.47;;
13122;SDS011;6627;50.920;12.050;2024-01-07T04:53:18;24.50;;;14.70;;
13122;SDS011;6627;50.920;12.050;2024-01-07T04:55:56;22.93;;;13.37;;
13122;SDS011;6627;50.920;12.050;2024-01-07T04:58:24;20.27;;;13.93;;
13122;SDS011;6627;50.920;12.050;2024-01-07T05:01:02;22.67;;;14.37;;
13122;SDS011;6627;50.920;12.050;2024-01-07T05:03:39;24.20;;;14.93;;
13122;SDS011;6627;50.920;12.050;2024-01-07T05:06:12;24.87;;;15.07;;
13122;SDS011;6627;50.920;12.050;2024-01-07T05:08:43;21.77;;;14.43;;
13122;SDS011;6627;50.920;12.050;2024-01-07T05:11:19;20.47;;;13.90;;
13122;SDS011;6627;50.920;12.050;2024-01-07T05:13:49;21.17;;;13.60;;
13122;SDS011;6627;50.920;12.050;2024-01-07T05:16:18;26.10;;;14.33;;
13122;SDS011;6627;50.920;12.050;2024-01-07T05:18:54;23.50;;;13.47;;
13122;SDS011;6627;50.920;12.050;2024-01-07T05:21:24;19.13;;;13.20;;
13122;SDS011;6627;50.920;12.050;2024-01-07T05:24:01;21.80;;;14.27;;
13122;SDS011;6627;50.920;12.050;2024-01-07T05:26:37;22.10;;;14.50;;
13122;SDS011;6627;50.920;12.050;2024-01-07T05:29:08;23.57;;;14.27;;
13122;SDS011;6627;50.920;12.050;2024-01-07T05:31:48;23.30;;;14.17;;
13122;SDS011;6627;50.920;12.050;2024-01-07T05:34:23;21.57;;;13.80;;
13122;SDS011;6627;50.920;12.050;2024-01-07T05:36:55;23.50;;;14.47;;
13122;SDS011;6627;50.920;12.050;2024-01-07T05:39:30;23.63;;;13.87;;
13122;SDS011;6627;50.920;12.050;2024-01-07T05:42:03;22.97;;;13.77;;
13122;SDS011;6627;50.920;12.050;2024-01-07T05:44:39;21.60;;;13.50;;
13122;SDS011;6627;50.920;12.050;2024-01-07T05:47:26;24.93;;;13.77;;
13122;SDS011;6627;50.920;12.050;2024-01-07T05:50:04;18.00;;;11.33;;
13122;SDS011;6627;50.920;12.050;2024-01-07T05:52:38;23.03;;;12.27;;
13122;SDS011;6627;50.920;12.050;2024-01-07T05:55:18;22.07;;;11.80;;
13122;SDS011;6627;50.920;12.050;2024-01-07T05:58:00;21.10;;;11.87;;
13122;SDS011;6627;50.920;12.050;2024-01-07T06:00:31;19.40;;;12.47;;
13122;SDS011;6627;50.920;12.050;2024-01-07T06:03:18;19.27;;;12.43;;
13122;SDS011;6627;50.920;12.050;2024-01-07T06:05:50;21.03;;;12.03;;
13122;SDS011;6627;50.920;12.050;2024-01-07T06:08:23;19.17;;;12.20;;
13122;SDS011;6627;50.920;12.050;2024-01-07T06:10:56;17.47;;;11.27;;
13122;SDS011;6627;50.920;12.050;2024-01-07T06:13:30;19.13;;;11.50;;
13122;SDS011;6627;50.920;12.050;2024-01-07T06:16:01;19.20;;;12.70;;
13122;SDS011;6627;50.920;12.050;2024-01-07T06:18:36;18.23;;;11.63;;
13122;SDS011;6627;50.920;12.050;2024-01-07T06:21:21;20.83;;;10.63;;
13122;SDS011;6627;50.920;12.050;2024-01-07T06:24:00;17.13;;;10.37;;
13122;SDS011;6627;50.920;12.050;2024-01-07T06:26:49;16.80;;;10.17;;
13122;SDS011;6627;50.920;12.050;2024-01-07T06:29:36;21.60;;;10.47;;
13122;SDS011;6627;50.920;12.050;2024-01-07T06:32:07;16.83;;;9.97;;
13122;SDS011;6627;50.920;12.050;2024-01-07T06:34:49;14.13;;;9.97;;
13122;SDS011;6627;50.920;12.050;2024-01-07T06:37:27;16.30;;;10.07;;
13122;SDS011;6627;50.920;12.050;2024-01-07T06:40:08;16.93;;;10.00;;
13122;SDS011;6627;50.920;12.050;2024-01-07T06:42:47;16.37;;;10.77;;
13122;SDS011;6627;50.920;12.050;2024-01-07T06:45:20;16.70;;;9.57;;
13122;SDS011;6627;50.920;12.050;2024-01-07T06:47:57;14.93;;;9.70;;
13122;SDS011;6627;50.920;12.050;2024-01-07T06:50:42;16.80;;;9.83;;
13122;SDS011;6627;50.920;12.050;2024-01-07T06:53:17;14.10;;;9.30;;
13122;SDS011;6627;50.920;12.050;2024-01-07T06:55:58;12.10;;;7.80;;
13122;SDS011;6627;50.920;12.050;2024-01-07T06:58:29;13.47;;;8.90;;
13122;SDS011;6627;50.920;12.050;2024-01-07T07:01:10;13.17;;;8.43;;
13122;SDS011;6627;50.920;12.050;2024-01-07T07:03:57;12.17;;;8.07;;
13122;SDS011;6627;50.920;12.050;2024-01-07T07:06:33;16.30;;;8.80;;
13122;SDS011;6627;50.920;12.050;2024-01-07T07:09:10;16.13;;;8.77;;
13122;SDS011;6627;50.920;12.050;2024-01-07T07:11:45;14.63;;;9.27;;
13122;SDS011;6627;50.920;12.050;2024-01-07T07:14:16;14.13;;;8.33;;
13122;SDS011;6627;50.920;12.050;2024-01-07T07:16:50;14.30;;;9.03;;
13122;SDS011;6627;50.920;12.050;2024-01-07T07:19:27;13.10;;;8.10;;
13122;SDS011;6627;50.920;12.050;2024-01-07T07:22:03;15.37;;;8.17;;
13122;SDS011;6627;50.920;12.050;2024-01-07T07:24:52;12.70;;;7.30;;
13122;SDS011;6627;50.920;12.050;2024-01-07T07:27:29;15.13;;;7.63;;
13122;SDS011;6627;50.920;12.050;2024-01-07T07:30:05;11.87;;;7.27;;
13122;SDS011;6627;50.920;12.050;2024-01-07T07:32:38;14.10;;;7.93;;
13122;SDS011;6627;50.920;12.050;2024-01-07T07:35:26;12.87;;;7.63;;
13122;SDS011;6627;50.920;12.050;2024-01-07T07:38:02;13.20;;;7.20;;
13122;SDS011;6627;50.920;12.050;2024-01-07T07:40:37;14.97;;;8.23;;
13122;SDS011;6627;50.920;12.050;2024-01-07T07:43:16;11.13;;;7.13;;
13122;SDS011;6627;50.920;12.050;2024-01-07T07:46:02;11.27;;;7.40;;
13122;SDS011;6627;50.920;12.050;2024-01-07T07:48:46;14.83;;;7.90;;
13122;SDS011;6627;50.920;12.050;2024-01-07T07:51:23;13.83;;;7.90;;
13122;SDS011;6627;50.920;12.050;2024-01-07T07:53:57;8.80;;;6.37;;
13122;SDS011;6627;50.920;12.050;2024-01-07T07:56:31;11.67;;;6.83;;
13122;SDS011;6627;50.920;12.050;2024-01-07T07:59:14;13.20;;;6.90;;
13122;SDS011;6627;50.920;12.050;2024-01-07T08:02:01;11.40;;;7.67;;
13122;SDS011;6627;50.920;12.050;2024-01-07T08:04:37;10.40;;;6.57;;
13122;SDS011;6627;50.920;12.050;2024-01-07T08:07:15;9.73;;;6.43;;
13122;SDS011;6627;50.920;12.050;2024-01-07T08:09:44;10.50;;;6.60;;
13122;SDS011;6627;50.920;12.050;2024-01-07T08:12:31;10.83;;;6.57;;
13122;SDS011;6627;50.920;12.050;2024-01-07T08:15:10;9.33;;;6.37;;
13122;SDS011;6627;50.920;12.050;2024-01-07T08:17:57;11.10;;;7.03;;
13122;SDS011;6627;50.920;12.050;2024-01-07T08:20:39;9.60;;;6.60;;
13122;SDS011;6627;50.920;12.050;2024-01-07T08:23:25;11.07;;;6.30;;
13122;SDS011;6627;50.920;12.050;2024-01-07T08:26:00;10.70;;;5.97;;
13122;SDS011;6627;50.920;12.050;2024-01-07T08:28:39;9.13;;;5.67;;
13122;SDS011;6627;50.920;12.050;2024-01-07T08:31:26;8.37;;;6.00;;
13122;SDS011;6627;50.920;12.050;2024-01-07T08:33:56;8.50;;;6.20;;
13122;SDS011;6627;50.920;12.050;2024-01-07T08:36:36;9.27;;;5.80;;
13122;SDS011;6627;50.920;12.050;2024-01-07T08:39:10;9.60;;;5.77;;
13122;SDS011;6627;50.920;12.050;2024-01-07T08:41:45;9.60;;;6.23;;
13122;SDS011;6627;50.920;12.050;2024-01-07T08:44:20;11.00;;;6.20;;
13122;SDS011;6627;50.920;12.050;2024-01-07T08:46:52;13.20;;;6.77;;
13122;SDS011;6627;50.920;12.050;2024-01-07T08:49:27;10.60;;;5.90;;
13122;SDS011;6627;50.920;12.050;2024-01-07T08:52:00;9.67;;;6.07;;
13122;SDS011;6627;50.920;12.050;2024-01-07T08:54:38;9.40;;;6.20;;
13122;SDS011;6627;50.920;12.050;2024-01-07T08:57:15;13.47;;;6.03;;
13122;SDS011;6627;50.920;12.050;2024-01-07T08:59:46;8.07;;;5.73;;
13122;SDS011;6627;50.920;12.050;2024-01-07T09:02:26;9.23;;;6.17;;
13122;SDS011;6627;50.920;12.050;2024-01-07T09:05:08;8.33;;;4.93;;
13122;SDS011;6627;50.920;12.050;2024-01-07T09:07:40;7.20;;;5.17;;
13122;SDS011;6627;50.920;12.050;2024-01-07T09:10:15;7.73;;;5.70;;
13122;SDS011;6627;50.920;12.050;2024-01-07T09:12:57;12.27;;;6.23;;
13122;SDS011;6627;50.920;12.050;2024-01-07T09:15:42;7.57;;;5.27;;
13122;SDS011;6627;50.920;12.050;2024-01-07T09:18:18;6.40;;;5.30;;
13122;SDS011;6627;50.920;12.050;2024-01-07T09:21:01;9.10;;;5.50;;
13122;SDS011;6627;50.920;12.050;2024-01-07T09:23:43;8.23;;;5.70;;
13122;SDS011;6627;50.920;12.050;2024-01-07T09:26:29;9.10;;;5.40;;
13122;SDS011;6627;50.920;12.050;2024-01-07T09:29:15;8.40;;;5.13;;
13122;SDS011;6627;50.920;12.050;2024-01-07T09:31:58;8.57;;;6.47;;
13122;SDS011;6627;50.920;12.050;2024-01-07T09:34:45;13.13;;;5.60;;
13122;SDS011;6627;50.920;12.050;2024-01-07T09:37:14;7.77;;;5.87;;
13122;SDS011;6627;50.920;12.050;2024-01-07T09:39:47;10.10;;;6.20;;
13122;SDS011;6627;50.920;12.050;2024-01-07T09:42:18;7.67;;;5.77;;
13122;SDS011;6627;50.920;12.050;2024-01-07T09:44:54;8.63;;;5.57;;
13122;SDS011;6627;50.920;12.050;2024-01-07T09:47:34;8.33;;;6.17;;
13122;SDS011;6627;50.920;12.050;2024-01-07T09:50:21;9.50;;;5.90;;
13122;SDS011;6627;50.920;12.050;2024-01-07T09:53:07;8.67;;;5.53;;
13122;SDS011;6627;50.920;12.050;2024-01-07T09:56:01;9.47;;;5.93;;
13122;SDS011;6627;50.920;12.050;2024-01-07T09:58:52;9.73;;;5.77;;
13122;SDS011;6627;50.920;12.050;2024-01-07T10:01:26;10.20;;;6.13;;
13122;SDS011;6627;50.920;12.050;2024-01-07T10:04:04;8.90;;;4.77;;
13122;SDS011;6627;50.920;12.050;2024-01-07T10:06:43;5.03;;;4.03;;
13122;SDS011;6627;50.920;12.050;2024-01-07T10:09:23;6.43;;;4.73;;
13122;SDS011;6627;50.920;12.050;2024-01-07T10:12:01;6.90;;;4.37;;
13122;SDS011;6627;50.920;12.050;2024-01-07T10:14:45;9.97;;;7.37;;
13122;SDS011;6627;50.920;12.050;2024-01-07T10:17:32;7.40;;;5.30;;
13122;SDS011;6627;50.920;12.050;2024-01-07T10:20:20;7.83;;;5.27;;
13122;SDS011;6627;50.920;12.050;2024-01-07T10:23:07;7.80;;;4.83;;
13122;SDS011;6627;50.920;12.050;2024-01-07T10:25:41;7.93;;;5.50;;
13122;SDS011;6627;50.920;12.050;2024-01-07T10:28:19;7.50;;;5.23;;
13122;SDS011;6627;50.920;12.050;2024-01-07T10:30:49;5.70;;;4.00;;
13122;SDS011;6627;50.920;12.050;2024-01-07T10:33:30;7.13;;;4.67;;
13122;SDS011;6627;50.920;12.050;2024-01-07T10:36:13;5.27;;;4.20;;
13122;SDS011;6627;50.920;12.050;2024-01-07T10:39:01;5.27;;;4.00;;
13122;SDS011;6627;50.920;12.050;2024-01-07T10:41:47;6.57;;;5.10;;
13122;SDS011;6627;50.920;12.050;2024-01-07T10:44:26;5.67;;;4.20;;
13122;SDS011;6627;50.920;12.050;2024-01-07T10:47:01;7.03;;;5.60;;
13122;SDS011;6627;50.920;12.050;2024-01-07T10:49:38;6.33;;;5.30;;
13122;SDS011;6627;50.920;12.050;2024-01-07T10:52:22;7.73;;;4.73;;
13122;SDS011;6627;50.920;12.050;2024-01-07T10:55:03;7.23;;;4.07;;
13122;SDS011;6627;50.920;12.050;2024-01-07T10:57:45;6.47;;;4.53;;
13122;SDS011;6627;50.920;12.050;2024-01-07T11:00:18;5.70;;;3.70;;
13122;SDS011;6627;50.920;12.050;2024-01-07T11:02:55;7.60;;;4.40;;
13122;SDS011;6627;50.920;12.050;2024-01-07T11:05:48;7.37;;;4.40;;
13122;SDS011;6627;50.920;12.050;2024-01-07T11:08:36;4.83;;;3.70;;
13122;SDS011;6627;50.920;12.050;2024-01-07T11:11:21;6.07;;;3.97;;
13122;SDS011;6627;50.920;12.050;2024-01-07T11:14:02;4.70;;;3.90;;
13122;SDS011;6627;50.920;12.050;2024-01-07T11:16:42;7.47;;;4.90;;
13122;SDS011;6627;50.920;12.050;2024-01-07T11:19:22;6.57;;;4.20;;
13122;SDS011;6627;50.920;12.050;2024-01-07T11:24:58;6.03;;;4.40;;
13122;SDS011;6627;50.920;12.050;2024-01-07T11:27:33;5.00;;;3.60;;
13122;SDS011;6627;50.920;12.050;2024-01-07T11:30:18;4.70;;;3.33;;
13122;SDS011;6627;50.920;12.050;2024-01-07T11:32:57;5.67;;;3.40;;
13122;SDS011;6627;50.920;12.050;2024-01-07T11:38:36;4.27;;;3.40;;
13122;SDS011;6627;50.920;12.050;2024-01-07T11:41:14;4.63;;;3.60;;
13122;SDS011;6627;50.920;12.050;2024-01-07T11:43:52;5.33;;;4.20;;
13122;SDS011;6627;50.920;12.050;2024-01-07T11:46:27;5.27;;;3.60;;
13122;SDS011;6627;50.920;12.050;2024-01-07T11:49:05;5.60;;;3.40;;
13122;SDS011;6627;50.920;12.050;2024-01-07T11:51:47;5.73;;;3.57;;
13122;SDS011;6627;50.920;12.050;2024-01-07T11:54:31;4.50;;;3.40;;
13122;SDS011;6627;50.920;12.050;2024-01-07T11:57:12;5.50;;;2.90;;
13122;SDS011;6627;50.920;12.050;2024-01-07T11:59:52;6.63;;;3.60;;
13122;SDS011;6627;50.920;12.050;2024-01-07T12:02:27;7.23;;;4.77;;
13122;SDS011;6627;50.920;12.050;2024-01-07T12:05:08;4.03;;;3.63;;
13122;SDS011;6627;50.920;12.050;2024-01-07T12:07:56;3.53;;;2.70;;
13122;SDS011;6627;50.920;12.050;2024-01-07T12:10:42;4.57;;;3.03;;
13122;SDS011;6627;50.920;12.050;2024-01-07T12:13:30;5.47;;;3.43;;
13122;SDS011;6627;50.920;12.050;2024-01-07T12:16:06;6.40;;;4.70;;
13122;SDS011;6627;50.920;12.050;2024-01-07T12:18:55;5.67;;;4.07;;
13122;SDS011;6627;50.920;12.050;2024-01-07T12:21:42;6.27;;;3.37;;
13122;SDS011;6627;50.920;12.050;2024-01-07T12:24:11;4.30;;;3.27;;
13122;SDS011;6627;50.920;12.050;2024-01-07T12:26:45;4.27;;;3.57;;
13122;SDS011;6627;50.920;12.050;2024-01-07T12:29:18;3.13;;;2.83;;
13122;SDS011;6627;50.920;12.050;2024-01-07T12:31:59;4.20;;;3.23;;
13122;SDS011;6627;50.920;12.050;2024-01-07T12:34:37;5.30;;;3.20;;
13122;SDS011;6627;50.920;12.050;2024-01-07T12:37:12;4.87;;;3.43;;
13122;SDS011;6627;50.920;12.050;2024-01-07T12:39:52;5.07;;;3.50;;
13122;SDS011;6627;50.920;12.050;2024-01-07T12:42:27;3.70;;;3.17;;
13122;SDS011;6627;50.920;12.050;2024-01-07T12:45:07;3.63;;;3.00;;
13122;SDS011;6627;50.920;12.050;2024-01-07T12:47:40;5.23;;;2.90;;
13122;SDS011;6627;50.920;12.050;2024-01-07T12:50:14;4.43;;;3.13;;
13122;SDS011;6627;50.920;12.050;2024-01-07T12:52:57;4.57;;;3.23;;
13122;SDS011;6627;50.920;12.050;2024-01-07T12:55:41;4.03;;;2.70;;
13122;SDS011;6627;50.920;12.050;2024-01-07T12:58:17;4.70;;;2.70;;
13122;SDS011;6627;50.920;12.050;2024-01-07T13:01:00;4.10;;;2.70;;
13122;SDS011;6627;50.920;12.050;2024-01-07T13:03:33;5.80;;;3.30;;
13122;SDS011;6627;50.920;12.050;2024-01-07T13:06:10;6.03;;;3.67;;
13122;SDS011;6627;50.920;12.050;2024-01-07T13:08:44;4.87;;;3.50;;
13122;SDS011;6627;50.920;12.050;2024-01-07T13:11:18;4.53;;;4.13;;
13122;SDS011;6627;50.920;12.050;2024-01-07T13:13:51;3.53;;;2.93;;
13122;SDS011;6627;50.920;12.050;2024-01-07T13:16:23;2.90;;;2.47;;
13122;SDS011;6627;50.920;12.050;2024-01-07T13:19:07;3.50;;;2.50;;
13122;SDS011;6627;50.920;12.050;2024-01-07T13:21:55;4.30;;;2.73;;
13122;SDS011;6627;50.920;12.050;2024-01-07T13:24:32;3.70;;;2.50;;
13122;SDS011;6627;50.920;12.050;2024-01-07T13:27:10;4.47;;;2.70;;
13122;SDS011;6627;50.920;12.050;2024-01-07T13:29:48;4.20;;;3.03;;
13122;SDS011;6627;50.920;12.050;2024-01-07T13:32:29;3.57;;;2.80;;
13122;SDS011;6627;50.920;12.050;2024-01-07T13:35:03;4.83;;;2.93;;
13122;SDS011;6627;50.920;12.050;2024-01-07T13:37:41;4.70;;;2.63;;
13122;SDS011;6627;50.920;12.050;2024-01-07T13:40:17;4.83;;;3.23;;
13122;SDS011;6627;50.920;12.050;2024-01-07T13:42:51;4.73;;;2.70;;
13122;SDS011;6627;50.920;12.050;2024-01-07T13:45:31;3.23;;;2.60;;
13122;SDS011;6627;50.920;12.050;2024-01-07T13:48:05;3.43;;;2.50;;
13122;SDS011;6627;50.920;12.050;2024-01-07T13:50:48;2.80;;;2.27;;
13122;SDS011;6627;50.920;12.050;2024-01-07T13:53:32;2.73;;;2.43;;
13122;SDS011;6627;50.920;12.050;2024-01-07T13:56:08;4.13;;;3.10;;
13122;SDS011;6627;50.920;12.050;2024-01-07T13:58:38;10.03;;;9.13;;
13122;SDS011;6627;50.920;12.050;2024-01-07T14:01:13;3.20;;;2.80;;
13122;SDS011;6627;50.920;12.050;2024-01-07T14:03:43;5.20;;;3.00;;
13122;SDS011;6627;50.920;12.050;2024-01-07T14:06:16;3.93;;;3.30;;
13122;SDS011;6627;50.920;12.050;2024-01-07T14:08:59;2.27;;;2.07;;
13122;SDS011;6627;50.920;12.050;2024-01-07T14:11:36;3.47;;;2.80;;
13122;SDS011;6627;50.920;12.050;2024-01-07T14:14:09;5.67;;;4.90;;
13122;SDS011;6627;50.920;12.050;2024-01-07T14:16:41;3.40;;;2.70;;
13122;SDS011;6627;50.920;12.050;2024-01-07T14:19:20;4.23;;;2.83;;
13122;SDS011;6627;50.920;12.050;2024-01-07T14:21:51;3.63;;;3.33;;
13122;SDS011;6627;50.920;12.050;2024-01-07T14:24:19;3.10;;;2.67;;
13122;SDS011;6627;50.920;12.050;2024-01-07T14:26:52;3.40;;;2.83;;
13122;SDS011;6627;50.920;12.050;2024-01-07T14:29:24;2.37;;;2.00;;
13122;SDS011;6627;50.920;12.050;2024-01-07T14:32:07;2.97;;;2.10;;
13122;SDS011;6627;50.920;12.050;2024-01-07T14:34:56;2.87;;;2.20;;
13122;SDS011;6627;50.920;12.050;2024-01-07T14:37:35;3.00;;;2.70;;
13122;SDS011;6627;50.920;12.050;2024-01-07T14:40:04;3.97;;;3.30;;
13122;SDS011;6627;50.920;12.050;2024-01-07T14:42:35;7.00;;;4.83;;
13122;SDS011;6627;50.920;12.050;2024-01-07T14:45:10;4.50;;;3.00;;
13122;SDS011;6627;50.920;12.050;2024-01-07T14:47:49;6.80;;;2.67;;
13122;SDS011;6627;50.920;12.050;2024-01-07T14:50:25;3.40;;;2.20;;
13122;SDS011;6627;50.920;12.050;2024-01-07T14:52:55;2.50;;;2.10;;
13122;SDS011;6627;50.920;12.050;2024-01-07T14:55:28;2.80;;;2.43;;
13122;SDS011;6627;50.920;12.050;2024-01-07T14:58:06;3.30;;;2.60;;
13122;SDS011;6627;50.920;12.050;2024-01-07T15:00:39;4.60;;;2.60;;
13122;SDS011;6627;50.920;12.050;2024-01-07T15:03:14;7.13;;;6.53;;
13122;SDS011;6627;50.920;12.050;2024-01-07T15:05:52;3.27;;;2.87;;
13122;SDS011;6627;50.920;12.050;2024-01-07T15:08:23;3.30;;;2.50;;
13122;SDS011;6627;50.920;12.050;2024-01-07T15:11:05;3.90;;;2.63;;
13122;SDS011;6627;50.920;12.050;2024-01-07T15:13:48;3.03;;;2.40;;
13122;SDS011;6627;50.920;12.050;2024-01-07T15:16:34;3.23;;;2.27;;
13122;SDS011;6627;50.920;12.050;2024-01-07T15:19:08;3.90;;;2.60;;
13122;SDS011;6627;50.920;12.050;2024-01-07T15:21:53;3.23;;;2.53;;
13122;SDS011;6627;50.920;12.050;2024-01-07T15:24:26;3.27;;;2.50;;
13122;SDS011;6627;50.920;12.050;2024-01-07T15:27:13;3.03;;;2.40;;
13122;SDS011;6627;50.920;12.050;2024-01-07T15:30:00;4.33;;;2.57;;
13122;SDS011;6627;50.920;12.050;2024-01-07T15:32:33;3.30;;;2.63;;
13122;SDS011;6627;50.920;12.050;2024-01-07T15:35:05;3.53;;;2.60;;
13122;SDS011;6627;50.920;12.050;2024-01-07T15:37:40;3.40;;;3.10;;
13122;SDS011;6627;50.920;12.050;2024-01-07T15:40:13;3.60;;;2.87;;
13122;SDS011;6627;50.920;12.050;2024-01-07T15:42:52;3.80;;;2.80;;
13122;SDS011;6627;50.920;12.050;2024-01-07T15:45:32;4.63;;;4.00;;